Weather at Berau/Maratua Airport

Public forecast

Using degrees Celsius for public forecast. Weather courtesy of forecast.io.

Closest aviation weather report (METAR) to Berau/Maratua Airport

Closest report is Bintulu Airport, 339.2 nm (628.2 km) W.

2024/05/28 16:00 (retrieved 53 minutes ago)

WBGB 281600Z 00000KT 9999 FEW016 27/27 Q1009

Closest aviation forecast (TAF) to Berau/Maratua Airport

Closest forecast is Bintulu Airport, 339.2 nm (628.2 km) W.

2024/05/28 12:00 (retrieved 5 hours ago)

TAF WBGB 281100Z 2812/2912 VRB03KT 9999 FEW016